RUK5ZH LIPZ-EGCC
Flight info
| Callsign | RUK5ZH |
|---|---|
| Flight time | N/A |
| Altitude | 34000 |
| Route | ROKIB DCT UNTAD DCT RESIA DCT ELMUR DCT RIPUS DCT DITON DCT HOC DCT LUL DCT RLP DCT ROTSI DCT KOTUN DCT AMAXA DCT VESAN DCT RATUK DCT SOVAT L613 SANDY UN57 WELIN T420 ELVOS |
| Aircraft | B738/M-SDE2E3FGHIRWXY/LB1 |
Departure
| Time | 2026-04-30 15:02 |
|---|---|
| Airport | Venice Marco Polo Airport (LIPZ) |
Arrival
| Time | N/A |
|---|---|
| Airport | Manchester Airport (EGCC) |
| Time | Latitude | Longitude | Altitude | Speed | Heading |
|---|---|---|---|---|---|
| 2026-04-30 14:16 | 45.50703 | 12.34079 | 14 ft | 0 kts | 227° |
| 2026-04-30 14:49 | 45.50717 | 12.34099 | 16 ft | 4 kts | 221° |
| 2026-04-30 14:50 | 45.50762 | 12.34133 | 14 ft | 4 kts | 170° |
| 2026-04-30 14:50 | 45.50776 | 12.34123 | 19 ft | 1 kts | 131° |
| 2026-04-30 14:51 | 45.50778 | 12.34120 | 17 ft | 0 kts | 131° |
| 2026-04-30 14:55 | 45.50731 | 12.34194 | 14 ft | 14 kts | 134° |
| 2026-04-30 14:56 | 45.50579 | 12.34338 | 15 ft | 12 kts | 176° |
| 2026-04-30 14:56 | 45.50413 | 12.34347 | 15 ft | 12 kts | 176° |
| 2026-04-30 14:57 | 45.50333 | 12.34354 | 15 ft | 11 kts | 176° |
| 2026-04-30 14:57 | 45.50207 | 12.34242 | 15 ft | 11 kts | 221° |
| 2026-04-30 14:58 | 45.50099 | 12.34103 | 16 ft | 10 kts | 224° |
| 2026-04-30 14:58 | 45.50043 | 12.34030 | 14 ft | 13 kts | 222° |
| 2026-04-30 14:58 | 45.49898 | 12.33847 | 14 ft | 14 kts | 220° |
| 2026-04-30 14:59 | 45.49777 | 12.33690 | 15 ft | 9 kts | 222° |
| 2026-04-30 15:00 | 45.49621 | 12.33534 | 16 ft | 10 kts | 223° |
| 2026-04-30 15:00 | 45.49516 | 12.33590 | 16 ft | 9 kts | 131° |
| 2026-04-30 15:01 | 45.49431 | 12.33721 | 8 ft | 9 kts | 133° |
| 2026-04-30 15:01 | 45.49431 | 12.33796 | 15 ft | 9 kts | 47° |
| 2026-04-30 15:01 | 45.49988 | 12.34517 | 13 ft | 118 kts | 42° |
| 2026-04-30 15:02 | 45.50731 | 12.35475 | 38 ft | 167 kts | 41° |
| 2026-04-30 15:02 | 45.51584 | 12.36570 | 694 ft | 162 kts | 46° |
| 2026-04-30 15:03 | 45.53823 | 12.40632 | 2682 ft | 191 kts | 86° |
| 2026-04-30 15:03 | 45.53416 | 12.44437 | 3979 ft | 207 kts | 99° |
| 2026-04-30 15:04 | 45.52871 | 12.48626 | 5595 ft | 214 kts | 98° |
| 2026-04-30 15:04 | 45.50041 | 12.53181 | 7819 ft | 251 kts | 180° |
| 2026-04-30 15:05 | 45.45688 | 12.49206 | 9934 ft | 271 kts | 256° |
| 2026-04-30 15:06 | 45.45316 | 12.43523 | 10819 ft | 304 kts | 271° |
| 2026-04-30 15:06 | 45.45146 | 12.37379 | 12381 ft | 313 kts | 270° |
| 2026-04-30 15:07 | 45.44939 | 12.31145 | 14101 ft | 318 kts | 270° |
| 2026-04-30 15:07 | 45.44708 | 12.24781 | 15567 ft | 325 kts | 270° |
| 2026-04-30 15:08 | 45.44462 | 12.18271 | 17063 ft | 333 kts | 270° |
| 2026-04-30 15:08 | 45.46294 | 12.09215 | 19103 ft | 325 kts | 321° |
| 2026-04-30 15:09 | 45.49975 | 12.05486 | 20411 ft | 327 kts | 329° |
| 2026-04-30 15:09 | 45.53804 | 12.01879 | 21683 ft | 333 kts | 330° |
| 2026-04-30 15:10 | 45.57712 | 11.98141 | 22831 ft | 342 kts | 330° |
| 2026-04-30 15:11 | 45.65696 | 11.90392 | 25040 ft | 353 kts | 330° |
| 2026-04-30 15:11 | 45.69782 | 11.86410 | 26035 ft | 358 kts | 330° |
| 2026-04-30 15:12 | 45.76266 | 11.80994 | 27391 ft | 363 kts | 340° |
| 2026-04-30 15:13 | 45.80895 | 11.77966 | 28307 ft | 368 kts | 339° |
| 2026-04-30 15:14 | 45.90264 | 11.71508 | 30027 ft | 380 kts | 339° |
| 2026-04-30 15:14 | 45.95801 | 11.63178 | 31129 ft | 406 kts | 302° |
| 2026-04-30 15:16 | 46.01952 | 11.44560 | 32721 ft | 417 kts | 301° |
| 2026-04-30 15:17 | 46.06996 | 11.29497 | 34039 ft | 420 kts | 301° |
| 2026-04-30 15:18 | 46.13376 | 11.10384 | 35051 ft | 429 kts | 300° |
| 2026-04-30 15:19 | 46.17253 | 10.98692 | 35701 ft | 433 kts | 300° |